Time;durP1;ratioP1;P1;durP2;ratioP2;P2;SDS_P1;SDS_P2;PMS_P1;PMS_P2;Temp;Humidity;BMP_temperature;BMP_pressure;BME280_temperature;BME280_humidity;BME280_pressure;Samples;Min_cycle;Max_cycle;Signal;HPM_P1;HPM_P2
2023/05/12 00:00:05;;;;;;;60.72;43.97;;;;;;;;;;5044109;28;20061;-61
2023/05/12 00:02:31;;;;;;;62.70;46.47;;;;;;;;;;5044550;28;20061;-64
2023/05/12 00:04:57;;;;;;;57.95;45.10;;;;;;;;;;5044170;28;20037;-62
2023/05/12 00:07:23;;;;;;;56.72;43.28;;;;;;;;;;5044643;28;20086;-63
2023/05/12 00:09:49;;;;;;;55.92;43.92;;;;;;;;;;5026485;28;20124;-61
2023/05/12 00:12:16;;;;;;;61.70;46.03;;;;;;;;;;5026482;28;20030;-61
2023/05/12 00:14:41;;;;;;;61.15;45.95;;;;;;;;;;5044254;28;20112;-60
2023/05/12 00:17:08;;;;;;;57.78;44.97;;;;;;;;;;5043811;28;20060;-60
2023/05/12 00:19:35;;;;;;;61.97;44.42;;;;;;;;;;5026749;28;20032;-59
2023/05/12 00:22:01;;;;;;;63.83;47.33;;;;;;;;;;5025878;28;20481;-59
2023/05/12 00:24:29;;;;;;;66.82;46.53;;;;;;;;;;5043830;28;20317;-59
2023/05/12 00:26:55;;;;;;;68.95;47.53;;;;;;;;;;5043628;28;20397;-61
2023/05/12 00:29:21;;;;;;;64.13;48.40;;;;;;;;;;5044176;28;20037;-59
2023/05/12 00:31:47;;;;;;;69.05;46.00;;;;;;;;;;5043863;28;20036;-60
2023/05/12 00:34:13;;;;;;;67.95;50.05;;;;;;;;;;5042544;28;20435;-58
2023/05/12 00:36:39;;;;;;;65.05;46.30;;;;;;;;;;5043911;28;20053;-53
2023/05/12 00:39:05;;;;;;;66.85;46.55;;;;;;;;;;5043591;28;20018;-61
2023/05/12 00:41:31;;;;;;;67.22;48.22;;;;;;;;;;5043157;28;20080;-59
2023/05/12 00:43:57;;;;;;;65.55;47.45;;;;;;;;;;5043056;28;20048;-57
2023/05/12 00:46:23;;;;;;;71.50;48.38;;;;;;;;;;5043826;28;20033;-61
2023/05/12 00:48:50;;;;;;;64.95;47.10;;;;;;;;;;5043102;28;20035;-61
2023/05/12 00:51:16;;;;;;;67.88;46.80;;;;;;;;;;5053140;28;20032;-58
2023/05/12 00:53:43;;;;;;;69.13;47.17;;;;;;;;;;5062678;28;20372;-59
2023/05/12 00:56:09;;;;;;;67.88;49.15;;;;;;;;;;5062548;28;20040;-60
2023/05/12 00:58:35;;;;;;;69.78;47.40;;;;;;;;;;5063366;28;20040;-61
2023/05/12 01:01:02;;;;;;;67.45;48.85;;;;;;;;;;5063301;28;20369;-60
2023/05/12 01:03:29;;;;;;;70.57;47.78;;;;;;;;;;5062866;28;20021;-62
2023/05/12 01:05:55;;;;;;;75.13;49.20;;;;;;;;;;5062210;28;20029;-61
2023/05/12 01:08:22;;;;;;;73.97;51.03;;;;;;;;;;5044894;28;20403;-59
2023/05/12 01:10:48;;;;;;;65.28;46.08;;;;;;;;;;5044278;28;20040;-59
2023/05/12 01:13:14;;;;;;;64.68;47.80;;;;;;;;;;5062672;28;20037;-60
2023/05/12 01:15:41;;;;;;;65.50;48.60;;;;;;;;;;5061463;28;20036;-61
2023/05/12 01:18:10;;;;;;;72.40;49.50;;;;;;;;;;5043786;28;20032;-61
2023/05/12 01:20:37;;;;;;;70.35;48.60;;;;;;;;;;5062492;28;20021;-59
2023/05/12 01:23:03;;;;;;;81.00;50.22;;;;;;;;;;5062113;28;20085;-60
2023/05/12 01:25:31;;;;;;;75.82;48.97;;;;;;;;;;5062169;28;20033;-61
2023/05/12 01:27:57;;;;;;;73.72;47.90;;;;;;;;;;5042875;28;20029;-61
2023/05/12 01:30:24;;;;;;;63.05;45.10;;;;;;;;;;5060209;28;20037;-59
2023/05/12 01:32:50;;;;;;;63.85;46.55;;;;;;;;;;5043680;28;20100;-61
2023/05/12 01:35:16;;;;;;;64.43;45.95;;;;;;;;;;5061366;28;20103;-61
2023/05/12 01:37:42;;;;;;;65.40;46.15;;;;;;;;;;5061350;28;20041;-60
2023/05/12 01:40:08;;;;;;;64.30;46.10;;;;;;;;;;5062180;28;20021;-58
2023/05/12 01:42:34;;;;;;;60.47;46.30;;;;;;;;;;5043258;28;20079;-58
2023/05/12 01:45:00;;;;;;;62.45;44.85;;;;;;;;;;5060977;28;20029;-59
2023/05/12 01:47:26;;;;;;;62.42;46.40;;;;;;;;;;5043700;28;20072;-57
2023/05/12 01:49:53;;;;;;;63.22;47.55;;;;;;;;;;5061818;28;20404;-57
2023/05/12 01:52:19;;;;;;;58.97;46.67;;;;;;;;;;5060975;28;20083;-59
2023/05/12 01:54:45;;;;;;;65.97;44.90;;;;;;;;;;5060756;28;20456;-58
2023/05/12 01:57:11;;;;;;;58.97;44.17;;;;;;;;;;5061351;28;20055;-62
2023/05/12 01:59:37;;;;;;;56.25;43.42;;;;;;;;;;5061375;28;20022;-59
2023/05/12 02:02:03;;;;;;;57.65;44.88;;;;;;;;;;5042205;28;20504;-61
2023/05/12 02:04:29;;;;;;;58.38;43.65;;;;;;;;;;5059136;28;20028;-61
2023/05/12 02:06:55;;;;;;;59.60;44.33;;;;;;;;;;5059526;28;20029;-59
2023/05/12 02:09:21;;;;;;;52.58;41.05;;;;;;;;;;5060062;28;20047;-58
2023/05/12 02:11:48;;;;;;;54.22;41.42;;;;;;;;;;5060803;28;20107;-57
2023/05/12 02:14:14;;;;;;;57.55;44.40;;;;;;;;;;5059345;28;20033;-61
2023/05/12 02:16:40;;;;;;;56.80;41.10;;;;;;;;;;5037033;28;20025;-61
2023/05/12 02:19:06;;;;;;;54.38;41.38;;;;;;;;;;5040450;28;20096;-60
2023/05/12 02:21:32;;;;;;;52.05;41.63;;;;;;;;;;5039969;28;20441;-59
2023/05/12 02:23:58;;;;;;;52.47;40.00;;;;;;;;;;5040894;28;20093;-58
2023/05/12 02:26:24;;;;;;;48.53;38.60;;;;;;;;;;5040209;28;20056;-59
2023/05/12 02:28:50;;;;;;;52.85;39.90;;;;;;;;;;5041015;28;20055;-58
2023/05/12 02:31:16;;;;;;;49.35;40.47;;;;;;;;;;5040653;28;20037;-58
2023/05/12 02:33:42;;;;;;;50.40;40.25;;;;;;;;;;5041472;28;20033;-59
2023/05/12 02:36:08;;;;;;;47.05;38.58;;;;;;;;;;5022818;28;20025;-59
2023/05/12 02:38:35;;;;;;;50.45;40.03;;;;;;;;;;5023718;28;20041;-60
2023/05/12 02:41:01;;;;;;;45.90;38.45;;;;;;;;;;5042059;28;20048;-60
2023/05/12 02:43:27;;;;;;;47.33;38.80;;;;;;;;;;5027139;28;20029;-61
2023/05/12 02:45:54;;;;;;;47.92;37.72;;;;;;;;;;5044126;28;20033;-58
2023/05/12 02:48:20;;;;;;;45.28;38.03;;;;;;;;;;5044821;28;20116;-57
2023/05/12 02:50:46;;;;;;;40.28;35.67;;;;;;;;;;5044978;28;20033;-61
2023/05/12 02:53:12;;;;;;;44.17;35.13;;;;;;;;;;5043878;28;20056;-60
2023/05/12 02:55:38;;;;;;;39.53;33.20;;;;;;;;;;5026788;28;20021;-62
2023/05/12 02:58:04;;;;;;;38.30;34.15;;;;;;;;;;5026033;28;20072;-59
2023/05/12 03:00:30;;;;;;;37.88;33.45;;;;;;;;;;5044288;28;20376;-61
2023/05/12 03:02:56;;;;;;;41.75;33.95;;;;;;;;;;5022300;28;20034;-62
2023/05/12 03:05:22;;;;;;;37.03;32.70;;;;;;;;;;5044364;28;20049;-61
2023/05/12 03:07:48;;;;;;;37.13;33.22;;;;;;;;;;5045037;28;20060;-59
2023/05/12 03:10:14;;;;;;;36.30;32.40;;;;;;;;;;5045025;28;20037;-60
2023/05/12 03:12:40;;;;;;;35.72;31.92;;;;;;;;;;5027006;28;20033;-59
2023/05/12 03:15:07;;;;;;;35.60;31.80;;;;;;;;;;5043934;28;20501;-61
2023/05/12 03:17:33;;;;;;;34.00;30.60;;;;;;;;;;5045830;28;20026;-60
2023/05/12 03:19:59;;;;;;;36.03;32.00;;;;;;;;;;5044519;28;20089;-60
2023/05/12 03:22:25;;;;;;;34.45;30.83;;;;;;;;;;5044640;28;20021;-57
2023/05/12 03:24:51;;;;;;;32.05;28.67;;;;;;;;;;5025600;28;20036;-61
2023/05/12 03:27:17;;;;;;;31.90;28.55;;;;;;;;;;5044386;28;20478;-59
2023/05/12 03:29:43;;;;;;;31.25;28.08;;;;;;;;;;5044595;28;20026;-61
2023/05/12 03:32:09;;;;;;;31.67;28.55;;;;;;;;;;5043609;28;20033;-60
2023/05/12 03:34:36;;;;;;;30.60;27.40;;;;;;;;;;5044148;28;20025;-60
2023/05/12 03:37:01;;;;;;;30.73;27.60;;;;;;;;;;5043332;28;20025;-59
2023/05/12 03:39:27;;;;;;;30.42;26.65;;;;;;;;;;5025594;28;20105;-61
2023/05/12 03:41:53;;;;;;;31.10;27.80;;;;;;;;;;5044063;28;20108;-59
2023/05/12 03:44:20;;;;;;;29.30;26.20;;;;;;;;;;5043786;28;20125;-61
2023/05/12 03:46:46;;;;;;;29.10;26.25;;;;;;;;;;5025572;28;20037;-61
2023/05/12 03:49:12;;;;;;;29.23;25.95;;;;;;;;;;5026449;28;20033;-62
2023/05/12 03:51:38;;;;;;;28.15;25.35;;;;;;;;;;5044555;28;20025;-58
2023/05/12 03:54:04;;;;;;;27.90;25.02;;;;;;;;;;5025339;28;20086;-59
2023/05/12 03:56:30;;;;;;;28.65;25.63;;;;;;;;;;5025120;28;20069;-60
2023/05/12 03:58:56;;;;;;;27.23;24.52;;;;;;;;;;5024590;28;20109;-62
2023/05/12 04:01:22;;;;;;;27.73;24.85;;;;;;;;;;5041231;28;20520;-62
2023/05/12 04:03:48;;;;;;;27.42;24.73;;;;;;;;;;5041013;28;20087;-61
2023/05/12 04:06:14;;;;;;;27.60;24.52;;;;;;;;;;5040601;28;20033;-63
2023/05/12 04:08:40;;;;;;;27.63;24.70;;;;;;;;;;5043995;28;20030;-62
2023/05/12 04:11:06;;;;;;;26.98;24.27;;;;;;;;;;5044068;28;20033;-61
2023/05/12 04:13:32;;;;;;;26.15;23.45;;;;;;;;;;5043568;28;20030;-61
2023/05/12 04:15:58;;;;;;;26.38;23.73;;;;;;;;;;5044039;28;20064;-62
2023/05/12 04:18:25;;;;;;;26.42;23.83;;;;;;;;;;5043771;28;20037;-62
2023/05/12 04:20:52;;;;;;;25.60;23.10;;;;;;;;;;5043772;28;20028;-63
2023/05/12 04:23:18;;;;;;;26.63;24.02;;;;;;;;;;5044203;28;20058;-58
2023/05/12 04:25:44;;;;;;;26.45;23.77;;;;;;;;;;5043296;28;20391;-61
2023/05/12 04:28:10;;;;;;;25.33;22.83;;;;;;;;;;5043336;28;20049;-60
2023/05/12 04:30:38;;;;;;;26.10;23.52;;;;;;;;;;5042923;28;20033;-61
2023/05/12 04:33:04;;;;;;;26.10;23.42;;;;;;;;;;5043201;28;20568;-61
2023/05/12 04:35:30;;;;;;;27.23;24.52;;;;;;;;;;5043356;28;20080;-60
2023/05/12 04:37:56;;;;;;;25.75;23.25;;;;;;;;;;5043859;28;20018;-61
2023/05/12 04:40:22;;;;;;;26.55;23.85;;;;;;;;;;5042350;28;20429;-60
2023/05/12 04:42:48;;;;;;;25.85;23.23;;;;;;;;;;5043258;28;20029;-59
2023/05/12 04:45:14;;;;;;;27.17;23.92;;;;;;;;;;5024453;28;20038;-61
2023/05/12 04:47:40;;;;;;;27.05;24.17;;;;;;;;;;5025737;28;20021;-61
2023/05/12 04:50:06;;;;;;;28.15;25.23;;;;;;;;;;5039999;28;20128;-62
2023/05/12 04:52:32;;;;;;;26.83;24.05;;;;;;;;;;5041673;28;20018;-61
2023/05/12 04:54:58;;;;;;;25.98;23.27;;;;;;;;;;5040305;28;20022;-59
2023/05/12 04:57:24;;;;;;;24.83;22.30;;;;;;;;;;5039806;28;20552;-60
2023/05/12 04:59:50;;;;;;;25.23;22.50;;;;;;;;;;5022522;28;20021;-59
2023/05/12 05:02:16;;;;;;;25.35;22.75;;;;;;;;;;5039965;28;20041;-59
2023/05/12 05:04:42;;;;;;;24.83;22.13;;;;;;;;;;5038719;28;20045;-59
2023/05/12 05:07:08;;;;;;;25.23;21.08;;;;;;;;;;5038886;28;20021;-60
2023/05/12 05:09:34;;;;;;;23.55;20.98;;;;;;;;;;5039903;28;20048;-59
2023/05/12 05:12:00;;;;;;;24.35;20.70;;;;;;;;;;5040255;28;20043;-61
2023/05/12 05:14:27;;;;;;;25.48;21.40;;;;;;;;;;5040008;28;20085;-60
2023/05/12 05:16:53;;;;;;;23.02;20.63;;;;;;;;;;5038638;28;20423;-59
2023/05/12 05:19:19;;;;;;;22.85;19.85;;;;;;;;;;5021288;28;20032;-59
2023/05/12 05:21:45;;;;;;;25.85;19.52;;;;;;;;;;5041889;28;20225;-58
2023/05/12 05:24:11;;;;;;;20.88;18.23;;;;;;;;;;5041900;28;20026;-59
2023/05/12 05:26:37;;;;;;;22.80;18.23;;;;;;;;;;5042146;28;20036;-62
2023/05/12 05:29:04;;;;;;;19.77;16.52;;;;;;;;;;5042082;28;20040;-62
2023/05/12 05:31:30;;;;;;;19.98;16.98;;;;;;;;;;5041112;28;20456;-60
2023/05/12 05:33:56;;;;;;;20.05;16.88;;;;;;;;;;5041250;28;20025;-59
2023/05/12 05:36:22;;;;;;;19.45;16.48;;;;;;;;;;5042159;28;20119;-61
2023/05/12 05:38:48;;;;;;;20.98;16.73;;;;;;;;;;5042723;28;20103;-62
2023/05/12 05:41:14;;;;;;;20.20;16.30;;;;;;;;;;5041512;28;20421;-62
2023/05/12 05:43:40;;;;;;;21.52;15.80;;;;;;;;;;5041947;28;20520;-62
2023/05/12 05:46:07;;;;;;;20.00;14.88;;;;;;;;;;5031658;22;20074;-49
2023/05/12 05:48:35;;;;;;;18.50;15.30;;;;;;;;;;4991017;28;20034;-53
2023/05/12 05:51:01;;;;;;;19.15;14.27;;;;;;;;;;4991365;28;20042;-51
2023/05/12 05:53:27;;;;;;;20.85;14.23;;;;;;;;;;4992162;28;20130;-52
2023/05/12 05:55:53;;;;;;;18.77;13.77;;;;;;;;;;4992148;28;20546;-55
2023/05/12 05:58:19;;;;;;;18.27;13.65;;;;;;;;;;4992432;28;20026;-58
2023/05/12 06:00:45;;;;;;;17.48;12.70;;;;;;;;;;4990946;28;20026;-53
2023/05/12 06:03:11;;;;;;;19.05;14.48;;;;;;;;;;4992461;28;20030;-54
2023/05/12 06:05:37;;;;;;;20.27;13.35;;;;;;;;;;4990748;28;20057;-47
2023/05/12 06:08:08;;;;;;;19.75;13.20;;;;;;;;;;4992089;28;20031;-55
2023/05/12 06:10:34;;;;;;;18.15;12.48;;;;;;;;;;4992084;28;20033;-57
2023/05/12 06:13:00;;;;;;;18.98;12.70;;;;;;;;;;4992153;28;20256;-53
2023/05/12 06:15:26;;;;;;;18.52;12.52;;;;;;;;;;4991406;28;20065;-54
2023/05/12 06:17:52;;;;;;;16.98;11.30;;;;;;;;;;4992231;28;20029;-57
2023/05/12 06:20:18;;;;;;;21.73;12.20;;;;;;;;;;4990861;28;20085;-56
2023/05/12 06:22:45;;;;;;;17.30;10.95;;;;;;;;;;4990735;28;20505;-53
2023/05/12 06:25:11;;;;;;;18.55;11.23;;;;;;;;;;5003159;28;20092;-55
2023/05/12 06:27:37;;;;;;;18.13;11.90;;;;;;;;;;5010411;28;20053;-55
2023/05/12 06:30:03;;;;;;;17.83;11.63;;;;;;;;;;5012032;28;20051;-53
2023/05/12 06:32:30;;;;;;;17.95;11.18;;;;;;;;;;5010430;28;20030;-53
2023/05/12 06:34:56;;;;;;;18.08;11.75;;;;;;;;;;5010165;28;20544;-54
2023/05/12 06:37:21;;;;;;;17.42;10.75;;;;;;;;;;5010491;28;20026;-55
2023/05/12 06:39:48;;;;;;;20.48;11.20;;;;;;;;;;5012241;28;20034;-53
2023/05/12 06:42:14;;;;;;;17.95;10.98;;;;;;;;;;5011848;28;20045;-54
2023/05/12 06:44:40;;;;;;;19.25;10.30;;;;;;;;;;5010643;28;20046;-53
2023/05/12 06:47:06;;;;;;;16.77;10.07;;;;;;;;;;5010242;28;20080;-54
2023/05/12 06:49:35;;;;;;;17.98;10.60;;;;;;;;;;5010191;28;20400;-53
2023/05/12 06:52:02;;;;;;;17.02;9.93;;;;;;;;;;4992685;28;20022;-56
2023/05/12 06:54:28;;;;;;;16.75;9.77;;;;;;;;;;4991526;28;20030;-56
2023/05/12 06:56:54;;;;;;;17.83;9.48;;;;;;;;;;4991674;28;20026;-55
2023/05/12 06:59:20;;;;;;;18.15;9.88;;;;;;;;;;4990548;28;20041;-53
2023/05/12 07:01:46;;;;;;;17.35;9.93;;;;;;;;;;4991526;28;20023;-55
2023/05/12 07:04:13;;;;;;;17.00;9.57;;;;;;;;;;4991679;28;20023;-52
2023/05/12 07:06:38;;;;;;;16.55;9.80;;;;;;;;;;4991938;28;20031;-53
2023/05/12 07:09:04;;;;;;;19.13;10.10;;;;;;;;;;4991972;28;20053;-56
2023/05/12 07:11:31;;;;;;;17.83;10.10;;;;;;;;;;4991425;28;20030;-56
2023/05/12 07:13:57;;;;;;;17.42;9.30;;;;;;;;;;4991528;28;20027;-54
2023/05/12 07:16:23;;;;;;;16.50;9.65;;;;;;;;;;4991431;28;20034;-54
2023/05/12 07:18:49;;;;;;;25.63;10.15;;;;;;;;;;4991638;28;20439;-57
2023/05/12 07:21:15;;;;;;;17.52;9.05;;;;;;;;;;4991151;28;20499;-51
2023/05/12 07:23:41;;;;;;;16.17;9.00;;;;;;;;;;4991984;28;20081;-52
2023/05/12 07:26:08;;;;;;;16.05;9.43;;;;;;;;;;4991690;28;20475;-53
2023/05/12 07:28:35;;;;;;;16.10;9.13;;;;;;;;;;4992751;28;20045;-54
2023/05/12 07:31:01;;;;;;;17.27;9.63;;;;;;;;;;4995143;28;20035;-54
2023/05/12 07:33:28;;;;;;;16.15;9.07;;;;;;;;;;4995134;28;20037;-54
2023/05/12 07:35:54;;;;;;;17.73;9.68;;;;;;;;;;4993323;28;20030;-57
2023/05/12 07:38:20;;;;;;;17.17;8.93;;;;;;;;;;4993861;28;20089;-54
2023/05/12 07:40:46;;;;;;;16.30;8.80;;;;;;;;;;4994961;28;20022;-56
2023/05/12 07:43:12;;;;;;;16.15;9.23;;;;;;;;;;4993457;28;20062;-53
2023/05/12 07:45:38;;;;;;;15.75;8.70;;;;;;;;;;5000610;28;20026;-54
2023/05/12 07:48:04;;;;;;;16.33;8.52;;;;;;;;;;5014265;28;20026;-55
2023/05/12 07:50:30;;;;;;;16.38;8.68;;;;;;;;;;5007959;28;20061;-53
2023/05/12 07:52:56;;;;;;;15.85;8.68;;;;;;;;;;4994706;28;20474;-55
2023/05/12 07:55:22;;;;;;;15.50;8.35;;;;;;;;;;4994194;28;20026;-56
2023/05/12 07:57:51;;;;;;;16.55;8.95;;;;;;;;;;4994324;28;20482;-57
2023/05/12 08:00:18;;;;;;;18.00;9.02;;;;;;;;;;4994571;28;20037;-55
2023/05/12 08:02:44;;;;;;;15.25;8.57;;;;;;;;;;4994411;28;20482;-57
2023/05/12 08:05:10;;;;;;;16.90;9.05;;;;;;;;;;4995034;28;20567;-59
2023/05/12 08:07:37;;;;;;;16.15;8.88;;;;;;;;;;4997640;28;20027;-55
2023/05/12 08:10:04;;;;;;;16.20;9.50;;;;;;;;;;4994248;28;20041;-56
2023/05/12 08:12:30;;;;;;;16.27;9.98;;;;;;;;;;4992913;28;20414;-56
2023/05/12 08:14:56;;;;;;;16.73;10.00;;;;;;;;;;4992678;28;20113;-53
2023/05/12 08:17:22;;;;;;;17.13;9.80;;;;;;;;;;4994241;28;20030;-54
2023/05/12 08:19:48;;;;;;;16.33;9.60;;;;;;;;;;4993036;28;20050;-56
2023/05/12 08:22:14;;;;;;;16.45;10.50;;;;;;;;;;4994367;28;20034;-55
2023/05/12 08:24:40;;;;;;;16.25;10.10;;;;;;;;;;4994025;28;20047;-55
2023/05/12 08:27:06;;;;;;;16.15;10.02;;;;;;;;;;4993776;28;20033;-55
2023/05/12 08:29:32;;;;;;;15.75;10.18;;;;;;;;;;4992486;28;20034;-55
2023/05/12 08:31:58;;;;;;;16.77;9.90;;;;;;;;;;4993796;28;20065;-56
2023/05/12 08:34:25;;;;;;;18.65;10.25;;;;;;;;;;4993805;28;20033;-58
2023/05/12 08:36:54;;;;;;;16.33;10.02;;;;;;;;;;4994935;28;20084;-55
2023/05/12 08:39:21;;;;;;;18.85;9.90;;;;;;;;;;4989780;28;20030;-56
2023/05/12 08:41:54;;;;;;;16.15;10.18;;;;;;;;;;4993347;28;20053;-59
2023/05/12 08:44:22;;;;;;;16.92;9.50;;;;;;;;;;5004561;28;20033;-51
2023/05/12 08:46:48;;;;;;;15.32;10.02;;;;;;;;;;4999638;28;20034;-55
2023/05/12 08:49:16;;;;;;;15.10;10.07;;;;;;;;;;5013490;28;20030;-55
2023/05/12 08:51:43;;;;;;;16.33;10.50;;;;;;;;;;4997440;28;20030;-55
2023/05/12 08:54:11;;;;;;;17.08;10.50;;;;;;;;;;5004268;28;20034;-54
2023/05/12 08:56:42;;;;;;;16.45;10.10;;;;;;;;;;5008172;28;20029;-54
2023/05/12 08:59:08;;;;;;;16.63;10.43;;;;;;;;;;4994145;28;20057;-50
2023/05/12 09:01:35;;;;;;;17.08;10.38;;;;;;;;;;4992645;28;20072;-52
2023/05/12 09:04:01;;;;;;;17.08;11.38;;;;;;;;;;4989300;28;20037;-57
2023/05/12 09:06:27;;;;;;;16.85;10.70;;;;;;;;;;4993714;28;20483;-55
2023/05/12 09:08:53;;;;;;;15.07;10.70;;;;;;;;;;4991983;28;20494;-53
2023/05/12 09:11:20;;;;;;;16.45;10.50;;;;;;;;;;4993330;28;20153;-55
2023/05/12 09:13:49;;;;;;;15.68;11.05;;;;;;;;;;4993366;28;20034;-54
2023/05/12 09:16:18;;;;;;;15.73;10.88;;;;;;;;;;4993138;28;20030;-56
2023/05/12 09:18:48;;;;;;;16.30;10.70;;;;;;;;;;4993323;28;20475;-53
2023/05/12 09:21:14;;;;;;;16.90;10.82;;;;;;;;;;4992990;28;20023;-51
2023/05/12 09:23:40;;;;;;;16.23;10.40;;;;;;;;;;4991459;28;20383;-55
2023/05/12 09:26:06;;;;;;;15.80;9.93;;;;;;;;;;4986951;28;20033;-56
2023/05/12 09:28:36;;;;;;;16.27;10.00;;;;;;;;;;4992856;28;20034;-55
2023/05/12 09:31:02;;;;;;;16.77;10.02;;;;;;;;;;4993163;28;20030;-55
2023/05/12 09:33:35;;;;;;;15.50;11.05;;;;;;;;;;4993250;28;20106;-54
2023/05/12 09:36:01;;;;;;;19.00;10.75;;;;;;;;;;4992668;28;20018;-58
2023/05/12 09:38:27;;;;;;;16.73;10.50;;;;;;;;;;4987793;28;20034;-56
2023/05/12 09:40:53;;;;;;;15.80;10.68;;;;;;;;;;4991835;28;20027;-54
2023/05/12 09:43:19;;;;;;;16.30;10.60;;;;;;;;;;4992376;28;20125;-56
2023/05/12 09:45:48;;;;;;;15.10;9.60;;;;;;;;;;4992422;28;20034;-56
2023/05/12 09:48:14;;;;;;;15.15;10.43;;;;;;;;;;4992752;28;20026;-55
2023/05/12 09:50:44;;;;;;;16.00;10.90;;;;;;;;;;4991783;28;20084;-55
2023/05/12 09:53:10;;;;;;;16.63;10.75;;;;;;;;;;4973220;28;20031;-56
2023/05/12 09:55:36;;;;;;;15.85;10.80;;;;;;;;;;4973669;28;20038;-57
2023/05/12 09:58:08;;;;;;;16.30;10.75;;;;;;;;;;4974033;28;20082;-56
2023/05/12 10:00:34;;;;;;;16.95;12.52;;;;;;;;;;4992315;28;20022;-57
2023/05/12 10:03:00;;;;;;;15.20;11.65;;;;;;;;;;4992922;28;20560;-56
2023/05/12 10:05:27;;;;;;;16.70;11.35;;;;;;;;;;4992567;28;20031;-51
2023/05/12 10:07:56;;;;;;;15.60;11.68;;;;;;;;;;4992766;28;20049;-54
2023/05/12 10:10:23;;;;;;;16.25;11.10;;;;;;;;;;4993841;28;20026;-55
2023/05/12 10:12:50;;;;;;;17.15;10.82;;;;;;;;;;4992229;28;20065;-56
2023/05/12 10:15:16;;;;;;;15.90;10.98;;;;;;;;;;4990899;28;20049;-58
2023/05/12 10:17:43;;;;;;;15.43;11.35;;;;;;;;;;4992527;28;20026;-54
2023/05/12 10:20:09;;;;;;;16.67;11.55;;;;;;;;;;4990966;28;20082;-55
2023/05/12 10:22:38;;;;;;;16.20;11.50;;;;;;;;;;4992279;28;20082;-57
2023/05/12 10:25:03;;;;;;;;;;;;;;;;;;4991237;28;20045;-54
2023/05/12 10:27:32;;;;;;;15.80;11.50;;;;;;;;;;5007404;28;19910;-56
2023/05/12 10:30:00;;;;;;;16.73;11.70;;;;;;;;;;4992529;28;20092;-56
2023/05/12 10:32:26;;;;;;;16.27;11.00;;;;;;;;;;4995913;28;20038;-58
2023/05/12 10:34:52;;;;;;;16.58;11.93;;;;;;;;;;5003081;28;20069;-56
2023/05/12 10:37:18;;;;;;;16.60;12.35;;;;;;;;;;4999764;28;20097;-56
2023/05/12 10:39:51;;;;;;;17.25;11.63;;;;;;;;;;4992218;28;20019;-55
2023/05/12 10:42:23;;;;;;;17.17;12.32;;;;;;;;;;4993944;28;20495;-55
2023/05/12 10:44:50;;;;;;;18.75;11.85;;;;;;;;;;4992452;28;20410;-55
2023/05/12 10:47:16;;;;;;;15.98;11.73;;;;;;;;;;4990926;28;20042;-53
2023/05/12 10:49:42;;;;;;;16.98;12.43;;;;;;;;;;4991354;28;20026;-56
2023/05/12 10:52:11;;;;;;;17.58;12.07;;;;;;;;;;4972499;28;20027;-53
2023/05/12 10:54:39;;;;;;;15.88;11.45;;;;;;;;;;4972030;28;20029;-56
2023/05/12 10:57:06;;;;;;;;;;;;;;;;;;4987963;28;20031;-56
2023/05/12 10:59:32;;;;;;;17.25;11.52;;;;;;;;;;4972617;28;20390;-55
2023/05/12 11:01:58;;;;;;;16.15;11.57;;;;;;;;;;4975022;28;20110;-57
2023/05/12 11:04:35;;;;;;;15.85;11.45;;;;;;;;;;4991996;28;20023;-53
2023/05/12 11:07:06;;;;;;;16.25;11.52;;;;;;;;;;5005635;28;20021;-59
2023/05/12 11:09:34;;;;;;;17.40;11.40;;;;;;;;;;5014250;28;20530;-57
2023/05/12 11:12:01;;;;;;;16.35;11.10;;;;;;;;;;4997691;28;20034;-56
2023/05/12 11:14:27;;;;;;;15.60;11.23;;;;;;;;;;4993826;28;20034;-54
2023/05/12 11:16:53;;;;;;;18.95;11.85;;;;;;;;;;4998690;28;20037;-54
2023/05/12 11:19:19;;;;;;;16.67;12.02;;;;;;;;;;5013494;28;20458;-55
2023/05/12 11:21:45;;;;;;;16.83;11.25;;;;;;;;;;5012779;28;20053;-55
2023/05/12 11:24:11;;;;;;;17.35;12.30;;;;;;;;;;4991786;28;20050;-54
2023/05/12 11:26:40;;;;;;;18.52;12.43;;;;;;;;;;4993918;28;20022;-54
2023/05/12 11:29:06;;;;;;;18.15;12.80;;;;;;;;;;4994964;28;20033;-58
2023/05/12 11:31:32;;;;;;;18.17;12.88;;;;;;;;;;4977778;28;20041;-56
2023/05/12 11:34:08;;;;;;;17.55;13.70;;;;;;;;;;4974496;28;20027;-54
2023/05/12 11:36:41;;;;;;;18.40;12.95;;;;;;;;;;4975115;28;20497;-59
2023/05/12 11:39:07;;;;;;;19.98;14.48;;;;;;;;;;4974205;28;20070;-53
2023/05/12 11:41:33;;;;;;;17.05;13.30;;;;;;;;;;4975233;28;20042;-55
2023/05/12 11:43:59;;;;;;;17.38;14.00;;;;;;;;;;4993102;28;20026;-57
2023/05/12 11:46:26;;;;;;;17.85;13.65;;;;;;;;;;5014145;22;20053;-62
2023/05/12 11:48:56;;;;;;;20.38;13.80;;;;;;;;;;5013892;28;20532;-61
2023/05/12 11:51:22;;;;;;;17.20;14.02;;;;;;;;;;5014510;28;20029;-62
2023/05/12 11:53:49;;;;;;;17.35;13.95;;;;;;;;;;5013661;28;20096;-61
2023/05/12 11:56:19;;;;;;;17.77;14.30;;;;;;;;;;5018721;28;20029;-61
2023/05/12 11:58:55;;;;;;;18.15;14.48;;;;;;;;;;5032881;28;20025;-61
2023/05/12 12:01:21;;;;;;;19.15;13.80;;;;;;;;;;5033603;28;20136;-62
2023/05/12 12:03:48;;;;;;;17.75;14.02;;;;;;;;;;5032779;28;20384;-62
2023/05/12 12:06:15;;;;;;;17.35;14.15;;;;;;;;;;5033289;28;20021;-62
2023/05/12 12:08:59;;;;;;;21.30;14.75;;;;;;;;;;5032494;28;20029;-62
2023/05/12 12:11:27;;;;;;;17.38;14.38;;;;;;;;;;5032540;28;20485;-62
2023/05/12 12:13:57;;;;;;;18.00;14.05;;;;;;;;;;5030791;28;20120;-61
2023/05/12 12:16:24;;;;;;;18.08;13.95;;;;;;;;;;5032909;28;20557;-59
2023/05/12 12:18:50;;;;;;;19.23;14.90;;;;;;;;;;5032950;28;20044;-60
2023/05/12 12:21:16;;;;;;;18.70;14.20;;;;;;;;;;5033218;28;20025;-60
2023/05/12 12:23:42;;;;;;;18.95;14.93;;;;;;;;;;5033116;28;20056;-60
2023/05/12 12:26:08;;;;;;;19.58;14.35;;;;;;;;;;5032190;28;20065;-60
2023/05/12 12:28:34;;;;;;;17.63;14.10;;;;;;;;;;5032057;28;20051;-62
2023/05/12 12:31:00;;;;;;;16.88;14.25;;;;;;;;;;5033131;28;20434;-62
2023/05/12 12:33:26;;;;;;;18.90;14.38;;;;;;;;;;5031768;28;20045;-62
2023/05/12 12:35:52;;;;;;;16.90;14.45;;;;;;;;;;5032666;28;20486;-61
2023/05/12 12:38:19;;;;;;;18.90;14.77;;;;;;;;;;5033239;28;20033;-62
2023/05/12 12:40:45;;;;;;;16.77;14.48;;;;;;;;;;5032986;28;20021;-60
2023/05/12 12:43:11;;;;;;;18.73;14.80;;;;;;;;;;5033029;28;20026;-61
2023/05/12 12:45:37;;;;;;;18.15;15.00;;;;;;;;;;5032433;28;20025;-61
2023/05/12 12:48:05;;;;;;;19.02;14.70;;;;;;;;;;5032928;28;20017;-63
2023/05/12 12:50:31;;;;;;;18.55;14.55;;;;;;;;;;5032731;28;20033;-62
2023/05/12 12:52:57;;;;;;;18.38;14.68;;;;;;;;;;5032691;28;20452;-61
2023/05/12 12:55:24;;;;;;;18.13;14.93;;;;;;;;;;5032452;28;20017;-62
2023/05/12 12:57:50;;;;;;;18.80;15.53;;;;;;;;;;5032263;28;20028;-62
2023/05/12 13:00:16;;;;;;;18.83;14.52;;;;;;;;;;5032647;28;20494;-60
2023/05/12 13:02:43;;;;;;;18.30;14.15;;;;;;;;;;5031693;28;20500;-59
2023/05/12 13:05:09;;;;;;;17.85;14.05;;;;;;;;;;5031255;28;20059;-61
2023/05/12 13:07:36;;;;;;;18.20;14.82;;;;;;;;;;5031333;28;20025;-61
2023/05/12 13:10:02;;;;;;;18.30;14.63;;;;;;;;;;5030952;28;20025;-60
2023/05/12 13:12:30;;;;;;;18.38;14.07;;;;;;;;;;5028015;28;20033;-62
2023/05/12 13:14:56;;;;;;;18.30;14.53;;;;;;;;;;5030306;28;20405;-61
2023/05/12 13:17:22;;;;;;;17.67;14.82;;;;;;;;;;5030696;28;20049;-61
2023/05/12 13:19:48;;;;;;;19.10;13.98;;;;;;;;;;5032194;28;20029;-60
2023/05/12 13:22:14;;;;;;;20.85;15.10;;;;;;;;;;5032227;28;20167;-60
2023/05/12 13:24:41;;;;;;;19.05;14.07;;;;;;;;;;5030956;28;20392;-62
2023/05/12 13:27:08;;;;;;;17.88;15.05;;;;;;;;;;5031361;28;20099;-61
2023/05/12 13:29:34;;;;;;;19.63;15.00;;;;;;;;;;5031754;28;20524;-63
2023/05/12 13:32:00;;;;;;;16.95;13.88;;;;;;;;;;5031815;28;20025;-62
2023/05/12 13:34:26;;;;;;;18.75;14.93;;;;;;;;;;5031424;28;20076;-61
2023/05/12 13:36:52;;;;;;;18.98;14.73;;;;;;;;;;5031564;28;20049;-60
2023/05/12 13:39:18;;;;;;;19.33;14.75;;;;;;;;;;5031678;28;20076;-62
2023/05/12 13:41:44;;;;;;;18.30;15.30;;;;;;;;;;5030044;28;20017;-61
2023/05/12 13:44:10;;;;;;;18.40;15.25;;;;;;;;;;5029900;28;20112;-61
2023/05/12 13:46:36;;;;;;;19.27;15.50;;;;;;;;;;5031656;28;20500;-62
2023/05/12 13:49:02;;;;;;;28.10;22.17;;;;;;;;;;5030378;28;20025;-61
2023/05/12 13:51:28;;;;;;;20.42;16.33;;;;;;;;;;5030569;28;20033;-61
2023/05/12 13:53:54;;;;;;;20.17;15.70;;;;;;;;;;5031099;28;20025;-63
2023/05/12 13:56:20;;;;;;;19.13;15.15;;;;;;;;;;5029885;28;20458;-60
2023/05/12 13:58:47;;;;;;;18.77;14.98;;;;;;;;;;5030965;28;20108;-64
2023/05/12 14:01:14;;;;;;;21.95;19.02;;;;;;;;;;5029907;28;20528;-60
2023/05/12 14:03:41;;;;;;;19.95;15.07;;;;;;;;;;5029997;28;20021;-62
2023/05/12 14:06:08;;;;;;;19.20;15.02;;;;;;;;;;5030031;28;20409;-61
2023/05/12 14:08:34;;;;;;;17.98;14.45;;;;;;;;;;5030955;28;20029;-59
2023/05/12 14:11:00;;;;;;;18.88;14.80;;;;;;;;;;5031654;28;20033;-61
2023/05/12 14:13:26;;;;;;;30.83;16.55;;;;;;;;;;5029675;28;20079;-61